Time;durP1;ratioP1;P1;durP2;ratioP2;P2;SDS_P1;SDS_P2;PMS_P1;PMS_P2;Temp;Humidity;BMP_temperature;BMP_pressure;BME280_temperature;BME280_humidity;BME280_pressure;Samples;Min_cycle;Max_cycle;Signal;HPM_P1;HPM_P2
2022/02/09 00:00:15;;;;;;;18.88;5.15;;;;;;;5.47;92.22;97917.94;2079912;28;20194;-65
2022/02/09 00:02:37;;;;;;;23.98;5.25;;;;;;;5.18;93.98;97913.56;2079716;28;20197;-66
2022/02/09 00:03:47;;;;;;;10.45;4.60;;;;;;;5.11;94.47;97907.66;2078816;28;20232;-65
2022/02/09 00:06:15;;;;;;;11.27;3.75;;;;;;;5.12;95.58;97910.22;2078734;28;20248;-65
2022/02/09 00:07:21;;;;;;;13.57;4.53;;;;;;;5.18;95.84;97910.97;2079603;28;20675;-66
2022/02/09 00:08:23;;;;;;;14.98;4.55;;;;;;;5.24;95.69;97916.00;2079637;28;20199;-66
2022/02/09 00:09:25;;;;;;;11.50;4.47;;;;;;;5.18;95.68;97901.41;2080357;28;20202;-65
2022/02/09 00:10:29;;;;;;;13.15;5.93;;;;;;;5.26;95.90;97922.00;2078323;28;20201;-66
2022/02/09 00:11:40;;;;;;;9.88;4.80;;;;;;;5.25;94.99;97923.75;2080246;28;20556;-66
2022/02/09 00:13:07;;;;;;;17.42;5.22;;;;;;;5.16;95.41;97923.97;2080102;28;20201;-66
2022/02/09 00:14:13;;;;;;;13.45;5.75;;;;;;;5.18;95.96;97919.59;2080157;28;20208;-66
2022/02/09 00:15:43;;;;;;;13.15;5.38;;;;;;;5.20;95.51;97915.22;2079751;28;20224;-66
2022/02/09 00:19:38;;;;;;;10.50;4.90;;;;;;;5.22;95.93;97926.41;2079358;28;20217;-66
2022/02/09 00:23:35;;;;;;;16.70;4.90;;;;;;;5.27;94.34;97924.56;2079813;28;20203;-66
2022/02/09 00:31:32;;;;;;;14.90;4.57;;;;;;;5.43;92.67;97921.53;2079711;28;20683;-65
2022/02/09 00:34:07;;;;;;;16.13;5.25;;;;;;;5.44;91.58;97925.84;2080095;28;20197;-66
2022/02/09 01:11:37;;;;;;;8.95;4.13;;;;;;;5.11;95.82;97913.69;2079417;28;20282;-64
2022/02/09 01:39:26;;;;;;;8.32;3.30;;;;;;;5.20;94.49;97886.66;2079894;28;20197;-63
2022/02/09 01:55:27;;;;;;;7.97;3.70;;;;;;;5.06;94.60;97878.38;2072595;28;20396;-64
2022/02/09 01:56:30;;;;;;;8.45;4.05;;;;;;;4.99;94.01;97856.91;2081407;28;20193;-64
2022/02/09 01:57:32;;;;;;;11.00;3.67;;;;;;;5.04;93.82;97865.44;2080642;28;20208;-63
2022/02/09 01:58:33;;;;;;;9.07;3.60;;;;;;;5.04;93.87;97864.59;2079800;28;20208;-63
2022/02/09 01:59:37;;;;;;;8.93;4.22;;;;;;;5.05;93.84;97879.25;2081345;28;20246;-63
2022/02/09 02:00:39;;;;;;;9.10;3.90;;;;;;;5.03;93.94;97878.44;2080947;28;20221;-64
2022/02/09 02:01:41;;;;;;;7.20;3.45;;;;;;;5.05;94.03;97881.84;2081371;28;20251;-63
2022/02/09 02:02:42;;;;;;;8.07;4.22;;;;;;;4.96;93.84;97875.16;2079486;28;20255;-64
2022/02/09 02:03:44;;;;;;;10.93;5.13;;;;;;;4.85;93.63;97846.03;2081259;28;20200;-64
2022/02/09 02:04:47;;;;;;;13.02;4.82;;;;;;;5.01;93.41;97877.63;2081239;28;20206;-63
2022/02/09 02:05:48;;;;;;;15.65;4.22;;;;;;;4.98;93.42;97875.09;2080872;28;20224;-64
2022/02/09 02:06:54;;;;;;;7.30;3.40;;;;;;;4.95;92.82;97863.91;2081375;28;20198;-64
2022/02/09 02:08:00;;;;;;;6.55;4.15;;;;;;;4.97;92.81;97871.66;2081370;28;20197;-64
2022/02/09 02:09:03;;;;;;;10.10;4.32;;;;;;;4.97;92.89;97871.66;2081164;28;20197;-64
2022/02/09 02:10:06;;;;;;;7.80;3.70;;;;;;;4.81;92.39;97841.81;2079779;28;20199;-64
2022/02/09 02:11:21;;;;;;;13.27;3.85;;;;;;;4.96;92.46;97867.38;2080937;28;20210;-64
2022/02/09 02:12:23;;;;;;;7.53;3.38;;;;;;;4.98;92.34;97865.59;2081087;28;20659;-64
2022/02/09 02:14:49;;;;;;;10.52;4.38;;;;;;;5.06;92.42;97868.00;2080578;28;20228;-64
2022/02/09 02:16:18;;;;;;;6.35;3.97;;;;;;;5.06;92.40;97870.59;2080310;28;20225;-63
2022/02/09 02:17:43;;;;;;;9.93;2.97;;;;;;;5.02;92.07;97872.41;2079768;28;20858;-63
2022/02/09 02:20:38;;;;;;;11.30;3.80;;;;;;;5.15;92.23;97867.72;2075379;28;20205;-64
2022/02/09 02:23:07;;;;;;;10.45;3.38;;;;;;;5.08;91.86;97867.06;2081000;28;20205;-63
2022/02/09 02:29:31;;;;;;;9.30;4.45;;;;;;;5.09;93.59;97849.72;2047580;29;20208;-64
2022/02/09 02:58:54;;;;;;;15.73;4.03;;;;;;;4.93;93.64;97823.31;2080771;28;20220;-64
2022/02/09 02:59:30;;;;;;;7.25;3.33;;;;;;;4.62;93.61;97805.94;2076265;28;20205;-64
2022/02/09 03:08:45;;;;;;;11.45;3.42;;;;;;;4.98;93.95;97824.06;2080780;28;20201;-63
2022/02/09 03:12:07;;;;;;;4.45;2.97;;;;;;;4.87;94.64;97819.13;2079684;28;20203;-64
2022/02/09 03:13:13;;;;;;;10.30;3.17;;;;;;;4.97;94.83;97824.09;2080356;28;20200;-63
2022/02/09 03:14:26;;;;;;;4.03;2.58;;;;;;;4.95;94.84;97824.97;2080741;28;20197;-64
2022/02/09 03:15:34;;;;;;;14.38;3.55;;;;;;;5.01;94.32;97823.94;2079901;28;20235;-64
2022/02/09 03:16:44;;;;;;;4.45;2.38;;;;;;;4.90;92.72;97816.47;2080449;28;20660;-63
2022/02/09 03:17:57;;;;;;;8.93;2.75;;;;;;;4.97;91.59;97816.31;2080298;28;20218;-63
2022/02/09 03:19:20;;;;;;;6.18;2.67;;;;;;;4.97;91.40;97816.31;2079191;28;20259;-64
2022/02/09 03:24:00;;;;;;;4.60;2.10;;;;;;;4.99;89.65;97809.31;2076858;28;20231;-64
2022/02/09 03:27:43;;;;;;;5.15;1.92;;;;;;;4.98;89.76;97811.06;2080299;28;20217;-63
2022/02/09 03:49:28;;;;;;;7.57;3.30;;;;;;;4.92;89.31;97808.63;2080338;28;20197;-64
2022/02/09 03:51:05;;;;;;;7.05;2.83;;;;;;;4.94;89.67;97805.09;2079957;28;20217;-63
2022/02/09 03:52:31;;;;;;;3.70;1.85;;;;;;;4.68;89.54;97766.84;2080250;28;20544;-64
2022/02/09 03:54:40;;;;;;;5.50;2.08;;;;;;;4.82;90.48;97804.56;2080279;28;20197;-63
2022/02/09 03:57:20;;;;;;;6.05;2.45;;;;;;;4.83;91.18;97796.75;2080143;28;20216;-63
2022/02/09 03:58:22;;;;;;;9.73;2.45;;;;;;;4.84;91.24;97801.06;2080466;28;20620;-64
2022/02/09 03:59:24;;;;;;;8.48;2.95;;;;;;;4.86;91.29;97801.88;2080570;28;20220;-63
2022/02/09 04:00:26;;;;;;;15.32;3.33;;;;;;;4.83;91.18;97795.91;2079988;28;20206;-64
2022/02/09 04:01:34;;;;;;;7.75;2.78;;;;;;;4.78;91.26;97801.19;2080575;28;20671;-64
2022/02/09 04:02:35;;;;;;;7.38;2.42;;;;;;;4.77;91.26;97804.69;2080380;28;20196;-63
2022/02/09 04:03:37;;;;;;;8.10;2.97;;;;;;;4.65;91.32;97781.69;2080163;28;20562;-63
2022/02/09 04:04:38;;;;;;;6.32;2.75;;;;;;;4.76;90.96;97795.19;2080394;28;20548;-63
2022/02/09 04:05:41;;;;;;;6.60;2.83;;;;;;;4.74;91.02;97799.56;2079877;28;20213;-64
2022/02/09 04:06:45;;;;;;;6.60;2.38;;;;;;;4.82;91.44;97802.84;2080491;28;20700;-63
2022/02/09 04:07:47;;;;;;;8.68;2.60;;;;;;;4.86;90.99;97801.88;2080036;28;20665;-64
2022/02/09 04:08:57;;;;;;;7.07;2.70;;;;;;;4.82;90.40;97796.78;2080361;28;20273;-63
2022/02/09 04:10:01;;;;;;;4.72;2.05;;;;;;;4.78;89.75;97783.03;2079619;28;20197;-63
2022/02/09 04:11:11;;;;;;;4.30;2.30;;;;;;;4.86;89.61;97793.22;2079223;28;20236;-63
2022/02/09 04:13:46;;;;;;;6.63;2.60;;;;;;;4.84;89.46;97788.09;2079848;28;20201;-63
2022/02/09 04:14:55;;;;;;;7.13;2.45;;;;;;;4.84;88.54;97785.50;2079724;28;20674;-63
2022/02/09 04:18:19;;;;;;;11.32;2.20;;;;;;;4.87;89.36;97800.97;2079623;28;20213;-64
2022/02/09 04:22:36;;;;;;;5.35;2.08;;;;;;;4.83;89.19;97798.50;2079545;28;20723;-63
2022/02/09 04:38:54;;;;;;;6.00;1.60;;;;;;;4.98;88.18;97794.63;2070677;28;20217;-64
2022/02/09 04:40:02;;;;;;;5.63;1.95;;;;;;;4.98;88.45;97794.63;2079410;28;20538;-64
2022/02/09 04:47:53;;;;;;;3.83;1.65;;;;;;;4.94;89.91;97799.91;2079267;28;20644;-64
2022/02/09 04:50:21;;;;;;;5.15;1.70;;;;;;;5.04;89.00;97791.88;2080087;28;20204;-63
2022/02/09 04:51:34;;;;;;;3.90;1.45;;;;;;;4.93;88.79;97780.03;2079536;28;20209;-64
2022/02/09 04:53:13;;;;;;;9.98;2.55;;;;;;;5.04;88.50;97794.47;2079638;28;20600;-64
2022/02/09 05:01:21;;;;;;;8.07;2.28;;;;;;;5.03;88.87;97790.16;2078881;28;20228;-63
2022/02/09 05:19:36;;;;;;;7.78;3.17;;;;;;;4.98;90.46;97786.84;2079943;28;20213;-64
2022/02/09 05:22:54;;;;;;;8.27;3.03;;;;;;;5.06;89.05;97779.72;2081628;28;20193;-64
2022/02/09 05:24:10;;;;;;;6.47;2.97;;;;;;;5.01;88.88;97786.75;2081546;28;20196;-64
2022/02/09 05:26:48;;;;;;;4.82;2.60;;;;;;;5.05;87.97;97786.63;2080653;28;20711;-64
2022/02/09 05:28:00;;;;;;;5.68;2.50;;;;;;;5.01;87.90;97787.59;2080499;28;20228;-64
2022/02/09 05:29:05;;;;;;;8.90;2.08;;;;;;;4.99;88.40;97780.75;2080892;28;20193;-63
2022/02/09 05:30:09;;;;;;;6.85;2.75;;;;;;;5.01;88.50;97791.94;2081152;28;20202;-63
2022/02/09 05:31:11;;;;;;;5.78;2.85;;;;;;;4.94;88.74;97779.16;2080937;28;20315;-63
2022/02/09 05:32:13;;;;;;;8.65;4.07;;;;;;;4.99;88.69;97779.00;2081699;28;20209;-64
2022/02/09 05:33:15;;;;;;;8.25;3.70;;;;;;;5.00;88.86;97790.25;2081623;28;20755;-63
2022/02/09 05:34:21;;;;;;;9.70;3.10;;;;;;;4.93;87.87;97779.19;2081621;28;20193;-63
2022/02/09 05:35:22;;;;;;;11.73;3.25;;;;;;;4.95;88.71;97788.63;2079381;28;20602;-64
2022/02/09 05:36:24;;;;;;;7.25;3.10;;;;;;;4.97;88.48;97783.38;2081545;28;20205;-63
2022/02/09 05:37:25;;;;;;;5.45;3.30;;;;;;;4.95;88.35;97788.63;2081370;28;20197;-64
2022/02/09 05:38:27;;;;;;;9.18;3.85;;;;;;;4.97;88.60;97786.00;2081589;28;20193;-64
2022/02/09 05:39:28;;;;;;;9.05;3.75;;;;;;;5.03;88.54;97784.97;2081587;28;20204;-63
2022/02/09 05:40:30;;;;;;;8.70;4.53;;;;;;;5.03;88.41;97782.38;2079765;28;20217;-63
2022/02/09 05:41:34;;;;;;;11.68;4.90;;;;;;;4.99;88.65;97783.34;2081542;28;20204;-63
2022/02/09 05:42:36;;;;;;;7.97;3.53;;;;;;;4.97;88.59;97785.16;2080596;28;20204;-64
2022/02/09 05:43:38;;;;;;;8.27;3.80;;;;;;;4.93;88.33;97774.84;2080140;28;20201;-63
2022/02/09 05:44:39;;;;;;;6.72;3.55;;;;;;;4.91;88.62;97778.38;2081382;28;20201;-63
2022/02/09 05:46:05;;;;;;;5.28;3.28;;;;;;;4.92;88.64;97780.94;2080782;28;20696;-63
2022/02/09 05:51:09;;;;;;;7.18;3.35;;;;;;;4.80;88.02;97777.81;2080676;28;20217;-63
2022/02/09 05:52:06;;;;;;;16.45;6.28;;;;;;;4.79;88.06;97776.97;2079356;28;20196;-63
2022/02/09 05:53:15;;;;;;;11.98;4.97;;;;;;;4.90;87.97;97794.81;2080668;28;20201;-63
2022/02/09 05:56:48;;;;;;;12.32;4.13;;;;;;;4.90;88.14;97794.81;2080801;28;20196;-63
2022/02/09 05:57:54;;;;;;;14.07;3.42;;;;;;;4.86;87.95;97796.69;2079721;28;20614;-63
2022/02/09 06:00:14;;;;;;;7.75;2.70;;;;;;;4.87;87.54;97794.94;2079429;28;20205;-63
2022/02/09 06:01:15;;;;;;;5.95;2.65;;;;;;;4.88;87.59;97794.91;2081211;28;20548;-63
2022/02/09 06:02:19;;;;;;;4.68;1.83;;;;;;;4.87;87.38;97792.34;2081071;28;20278;-63
2022/02/09 06:03:20;;;;;;;4.05;1.92;;;;;;;4.89;87.37;97791.38;2079592;28;20545;-63
2022/02/09 06:04:22;;;;;;;4.78;2.35;;;;;;;4.89;87.65;97795.75;2081337;28;20201;-63
2022/02/09 06:05:23;;;;;;;5.63;2.60;;;;;;;4.87;87.57;97790.59;2080108;28;20193;-63
2022/02/09 06:06:26;;;;;;;7.60;2.22;;;;;;;4.88;87.78;97794.03;2081221;28;20193;-63
2022/02/09 06:07:27;;;;;;;4.13;1.85;;;;;;;4.87;87.37;97793.19;2081149;28;20212;-63
2022/02/09 06:08:30;;;;;;;6.22;2.30;;;;;;;4.86;87.69;97790.63;2080977;28;20197;-63
2022/02/09 06:09:31;;;;;;;5.53;2.05;;;;;;;4.85;87.24;97789.78;2081109;28;20189;-63
2022/02/09 06:10:34;;;;;;;7.68;2.35;;;;;;;4.88;87.23;97794.03;2080773;28;20221;-63
2022/02/09 06:12:47;;;;;;;4.78;2.08;;;;;;;4.91;87.42;97802.56;2081157;28;20284;-63
2022/02/09 06:13:59;;;;;;;11.02;2.70;;;;;;;4.90;87.84;97800.03;2080296;28;20193;-63
2022/02/09 06:20:04;;;;;;;9.18;2.20;;;;;;;4.77;87.94;97781.34;2080495;28;20223;-63
2022/02/09 06:21:05;;;;;;;4.60;2.03;;;;;;;4.86;87.86;97799.28;2079934;28;20245;-63
2022/02/09 06:22:07;;;;;;;6.72;2.65;;;;;;;4.85;87.61;97797.56;2080454;28;20197;-63
2022/02/09 06:23:08;;;;;;;5.93;2.47;;;;;;;4.86;87.79;97798.41;2080916;28;20204;-63
2022/02/09 06:24:10;;;;;;;8.70;1.90;;;;;;;4.89;87.64;97799.19;2079059;28;20700;-63
2022/02/09 06:25:11;;;;;;;13.57;2.40;;;;;;;4.89;87.40;97799.19;2080659;28;20208;-63
2022/02/09 06:26:13;;;;;;;6.80;2.42;;;;;;;4.89;87.72;97803.53;2081096;28;20208;-63
2022/02/09 06:27:16;;;;;;;3.33;1.88;;;;;;;4.86;87.61;97804.47;2080919;28;20205;-63
2022/02/09 06:28:18;;;;;;;10.95;2.50;;;;;;;4.86;88.20;97798.41;2081088;28;20201;-63
2022/02/09 06:29:19;;;;;;;8.40;2.15;;;;;;;4.91;87.80;97807.78;2080224;28;20197;-64
2022/02/09 06:30:21;;;;;;;10.88;2.80;;;;;;;4.86;87.98;97798.41;2080393;28;20204;-62
2022/02/09 06:31:22;;;;;;;12.60;2.15;;;;;;;4.91;87.71;97799.97;2080953;28;20197;-62
2022/02/09 06:32:24;;;;;;;5.05;2.85;;;;;;;4.86;87.93;97801.88;2081058;28;20232;-61
2022/02/09 06:33:26;;;;;;;5.68;2.42;;;;;;;4.85;88.28;97794.97;2081134;28;20670;-62
2022/02/09 06:34:28;;;;;;;6.78;2.20;;;;;;;4.87;88.14;97800.97;2080603;28;20197;-62
2022/02/09 06:35:30;;;;;;;6.70;2.17;;;;;;;4.87;88.14;97800.13;2078787;28;20221;-62
2022/02/09 06:36:37;;;;;;;6.70;2.47;;;;;;;4.84;88.09;97801.06;2080887;28;20197;-62
2022/02/09 06:37:43;;;;;;;11.00;2.15;;;;;;;4.85;88.46;97807.94;2080549;28;20212;-62
2022/02/09 06:38:44;;;;;;;6.85;2.20;;;;;;;4.81;88.44;97793.34;2080682;28;20208;-62
2022/02/09 06:39:54;;;;;;;4.65;2.30;;;;;;;4.83;88.47;97801.94;2080968;28;20686;-62
2022/02/09 06:40:56;;;;;;;8.35;3.20;;;;;;;4.77;88.30;97789.13;2080082;28;20221;-62
2022/02/09 06:41:59;;;;;;;4.25;1.60;;;;;;;4.82;87.88;97796.78;2080836;28;20205;-62
2022/02/09 06:43:01;;;;;;;6.60;2.22;;;;;;;4.82;88.27;97797.66;2080878;28;20228;-62
2022/02/09 06:44:03;;;;;;;4.55;2.20;;;;;;;4.80;88.20;97796.81;2080802;28;20235;-61
2022/02/09 06:45:13;;;;;;;18.95;2.30;;;;;;;4.88;88.16;97801.81;2079953;28;20686;-62
2022/02/09 06:46:14;;;;;;;7.07;2.53;;;;;;;4.88;88.40;97797.50;2079644;28;20240;-62
2022/02/09 06:47:21;;;;;;;6.80;2.50;;;;;;;4.85;88.23;97797.56;2080682;28;20232;-62
2022/02/09 06:48:22;;;;;;;6.13;2.88;;;;;;;4.83;88.03;97793.31;2078432;28;20196;-61
2022/02/09 06:49:24;;;;;;;8.05;2.72;;;;;;;4.82;87.97;97789.88;2080863;28;20197;-61
2022/02/09 06:50:39;;;;;;;13.00;3.42;;;;;;;4.82;87.93;97797.66;2080465;28;20663;-61
2022/02/09 06:51:43;;;;;;;6.78;2.30;;;;;;;4.83;88.03;97791.56;2078906;28;20196;-61
2022/02/09 06:52:48;;;;;;;9.27;3.55;;;;;;;4.83;88.06;97793.31;2080496;28;20636;-61
2022/02/09 06:54:12;;;;;;;7.35;3.05;;;;;;;4.77;88.03;97793.47;2080923;28;20204;-61
2022/02/09 06:55:19;;;;;;;4.50;2.40;;;;;;;4.81;87.96;97795.94;2079124;28;20790;-61
2022/02/09 06:56:38;;;;;;;7.68;2.60;;;;;;;4.82;88.00;97795.06;2079583;28;20205;-61
2022/02/09 06:59:11;;;;;;;9.73;2.95;;;;;;;4.92;87.64;97790.44;2079739;28;20197;-62
2022/02/09 07:00:14;;;;;;;4.90;2.30;;;;;;;5.00;87.20;97791.13;2078431;28;20272;-62
2022/02/09 07:01:15;;;;;;;9.10;2.47;;;;;;;5.15;86.54;97787.22;2080666;28;20216;-61
2022/02/09 07:02:17;;;;;;;7.18;2.60;;;;;;;5.39;85.78;97792.59;2080605;28;20209;-62
2022/02/09 07:03:19;;;;;;;7.90;2.65;;;;;;;5.65;84.59;97797.06;2080494;28;20193;-61
2022/02/09 07:04:20;;;;;;;67.85;28.88;;;;;;;5.84;83.69;97790.41;2080666;28;20196;-68
2022/02/09 07:05:22;;;;;;;29.60;11.70;;;;;;;5.98;82.98;97768.31;2078935;28;20262;-63
2022/02/09 07:06:23;;;;;;;13.43;7.18;;;;;;;6.34;81.65;97798.34;2080715;28;20201;-65
2022/02/09 07:07:25;;;;;;;9.40;4.03;;;;;;;6.57;80.84;97798.53;2080706;28;20206;-66
2022/02/09 07:08:29;;;;;;;8.57;3.33;;;;;;;6.76;79.59;97789.16;2080377;28;20224;-62
2022/02/09 07:09:31;;;;;;;11.43;3.58;;;;;;;6.84;79.17;97787.16;2080680;28;20284;-62
2022/02/09 07:10:33;;;;;;;9.15;2.80;;;;;;;6.78;78.63;97771.72;2079703;28;20711;-62
2022/02/09 07:11:34;;;;;;;7.50;2.65;;;;;;;6.97;78.22;97792.75;2080709;28;20195;-63
2022/02/09 07:12:38;;;;;;;8.20;3.83;;;;;;;7.17;77.78;97791.19;2081013;28;20197;-62
2022/02/09 07:13:39;;;;;;;8.18;3.67;;;;;;;7.24;77.22;97790.94;2080725;28;21148;-62
2022/02/09 07:14:41;;;;;;;3.63;2.25;;;;;;;7.29;76.53;97789.00;2080681;28;20204;-62
2022/02/09 07:15:47;;;;;;;6.60;3.22;;;;;;;7.47;76.07;97794.47;2080018;28;20225;-62
2022/02/09 07:16:50;;;;;;;6.07;2.42;;;;;;;7.51;75.68;97796.03;2079248;28;20205;-63
2022/02/09 07:17:52;;;;;;;4.82;2.15;;;;;;;7.76;75.20;97795.09;2080004;28;20201;-63
2022/02/09 07:18:54;;;;;;;3.60;1.98;;;;;;;7.79;74.32;97790.63;2079943;28;20279;-63
2022/02/09 07:20:06;;;;;;;8.45;2.78;;;;;;;8.01;73.88;97798.44;2079996;28;20209;-63
2022/02/09 07:21:14;;;;;;;6.97;2.50;;;;;;;8.14;73.06;97790.16;2078998;28;20255;-63
2022/02/09 07:22:23;;;;;;;5.25;2.45;;;;;;;8.25;72.44;97794.03;2080346;28;20228;-63
2022/02/09 07:23:42;;;;;;;5.70;2.30;;;;;;;8.38;71.87;97789.13;2080557;28;20425;-63
2022/02/09 07:24:44;;;;;;;7.10;3.22;;;;;;;8.85;70.13;97788.09;2080480;28;20680;-63
2022/02/09 07:26:02;;;;;;;12.48;3.22;;;;;;;8.77;69.64;97751.84;2079962;28;20229;-63
2022/02/09 07:28:23;;;;;;;5.72;2.97;;;;;;;10.01;65.78;97784.56;2080257;28;20230;-63
2022/02/09 07:29:25;;;;;;;7.22;2.05;;;;;;;9.76;66.37;97782.28;2080399;28;20198;-63
2022/02/09 07:30:27;;;;;;;8.52;2.38;;;;;;;9.61;67.09;97769.91;2080105;28;20652;-63
2022/02/09 07:31:29;;;;;;;6.40;2.28;;;;;;;9.93;66.01;97781.47;2080655;28;20204;-64
2022/02/09 07:32:30;;;;;;;6.20;2.40;;;;;;;9.83;67.14;97770.59;2080452;28;20209;-63
2022/02/09 07:33:32;;;;;;;5.97;2.67;;;;;;;10.52;64.88;97781.28;2079367;28;20409;-62
2022/02/09 07:34:33;;;;;;;17.95;10.63;;;;;;;10.20;65.91;97786.31;2080269;28;20193;-66
2022/02/09 07:35:38;;;;;;;194.10;93.60;;;;;;;10.57;64.13;97779.31;2079871;28;20217;-67
2022/02/09 07:36:44;;;;;;;14.73;5.13;;;;;;;10.94;62.76;97777.41;2080539;28;20197;-65
2022/02/09 07:37:46;;;;;;;11.38;3.53;;;;;;;11.34;60.07;97760.44;2080291;28;20208;-65
2022/02/09 07:38:48;;;;;;;9.93;4.15;;;;;;;11.62;59.86;97779.94;2080336;28;20442;-65
2022/02/09 07:39:49;;;;;;;8.00;2.10;;;;;;;11.36;60.04;97776.09;2080201;28;20205;-65
2022/02/09 07:40:57;;;;;;;6.60;2.10;;;;;;;11.25;59.81;97769.66;2079770;28;20256;-65
2022/02/09 07:42:07;;;;;;;4.47;2.00;;;;;;;11.33;59.70;97774.50;2079029;28;20193;-65
2022/02/09 07:43:18;;;;;;;10.65;1.67;;;;;;;11.22;60.09;97774.22;2079687;28;20197;-65
2022/02/09 07:44:45;;;;;;;7.55;2.10;;;;;;;11.16;60.42;97775.38;2080380;28;20201;-65
2022/02/09 07:46:04;;;;;;;5.35;1.73;;;;;;;10.89;60.93;97780.28;2077938;28;20707;-65
2022/02/09 07:47:35;;;;;;;3.45;1.60;;;;;;;10.60;61.91;97781.75;2080089;28;20212;-65
2022/02/09 07:48:41;;;;;;;7.65;2.75;;;;;;;10.59;61.81;97777.47;2078886;28;20713;-65
2022/02/09 07:50:04;;;;;;;6.25;1.73;;;;;;;10.92;61.19;97779.25;2079659;28;20189;-65
2022/02/09 07:52:23;;;;;;;5.20;2.30;;;;;;;10.93;60.12;97757.38;2078392;28;20239;-65
2022/02/09 07:53:34;;;;;;;4.95;2.20;;;;;;;11.55;58.73;97768.94;2080401;28;20208;-65
2022/02/09 07:54:36;;;;;;;7.18;2.55;;;;;;;11.71;58.15;97776.81;2080292;28;20551;-65
2022/02/09 07:55:39;;;;;;;7.57;2.55;;;;;;;12.19;57.56;97780.31;2079802;28;20902;-65
2022/02/09 07:56:42;;;;;;;3.22;2.03;;;;;;;12.62;56.19;97774.34;2080297;28;20691;-65
2022/02/09 07:57:43;;;;;;;6.75;2.53;;;;;;;12.51;55.60;97772.38;2080213;28;20205;-65
2022/02/09 07:58:45;;;;;;;8.00;2.20;;;;;;;12.44;56.14;97779.75;2080283;28;20208;-65
2022/02/09 07:59:46;;;;;;;4.90;2.10;;;;;;;12.89;54.96;97771.06;2079951;28;20681;-65
2022/02/09 08:00:48;;;;;;;4.93;2.15;;;;;;;13.59;53.13;97772.03;2079803;28;20237;-65
2022/02/09 08:01:51;;;;;;;7.20;2.30;;;;;;;13.41;53.07;97775.81;2080199;28;20201;-65
2022/02/09 08:02:52;;;;;;;4.95;2.00;;;;;;;13.40;52.85;97764.44;2078967;28;20428;-66
2022/02/09 08:03:54;;;;;;;3.85;1.95;;;;;;;13.40;52.43;97776.75;2080157;28;20675;-65
2022/02/09 08:04:55;;;;;;;7.95;2.28;;;;;;;13.14;53.67;97775.69;2079316;28;20197;-65
2022/02/09 08:05:57;;;;;;;4.93;1.85;;;;;;;13.24;53.52;97768.91;2079481;28;20236;-65
2022/02/09 08:06:58;;;;;;;3.88;1.88;;;;;;;13.04;53.45;97772.75;2080101;28;20193;-65
2022/02/09 08:08:00;;;;;;;6.82;1.60;;;;;;;12.61;54.35;97757.75;2080053;28;20197;-65
2022/02/09 08:09:06;;;;;;;5.05;1.95;;;;;;;12.48;55.07;97767.28;2079465;28;20652;-65
2022/02/09 08:28:19;;;;;;;4.97;2.20;;;;;;;14.37;49.73;97736.38;2079910;28;20206;-66
2022/02/09 08:29:29;;;;;;;7.65;2.38;;;;;;;14.52;49.15;97750.31;2078775;28;20204;-66
2022/02/09 08:33:05;;;;;;;7.13;2.55;;;;;;;15.47;46.24;97746.47;2080195;28;20201;-66
2022/02/09 08:34:06;;;;;;;6.00;2.40;;;;;;;15.91;46.13;97753.03;2079863;28;20272;-66
2022/02/09 08:35:08;;;;;;;6.80;2.30;;;;;;;17.01;42.94;97745.78;2078289;28;20429;-66
2022/02/09 08:36:10;;;;;;;5.28;1.88;;;;;;;17.04;43.23;97748.22;2079884;28;20338;-66
2022/02/09 08:37:11;;;;;;;8.55;2.20;;;;;;;16.58;43.89;97736.66;2079593;28;20201;-66
2022/02/09 08:38:13;;;;;;;5.60;2.08;;;;;;;17.31;43.51;97747.03;2079453;28;20670;-66
2022/02/09 08:39:15;;;;;;;15.25;2.53;;;;;;;18.51;39.98;97745.38;2077998;28;20799;-66
2022/02/09 08:40:20;;;;;;;3.00;1.50;;;;;;;17.63;41.37;97749.78;2079552;28;20217;-66
2022/02/09 08:41:21;;;;;;;2.65;1.70;;;;;;;16.37;44.09;97741.75;2080104;28;20204;-66
2022/02/09 08:42:24;;;;;;;3.35;1.65;;;;;;;15.63;46.28;97746.22;2080089;28;20212;-66
2022/02/09 08:43:28;;;;;;;3.13;1.20;;;;;;;15.33;47.19;97742.16;2079757;28;20277;-66
2022/02/09 08:44:30;;;;;;;5.80;1.88;;;;;;;18.31;40.73;97747.03;2080062;28;20200;-66
2022/02/09 08:45:32;;;;;;;4.93;1.70;;;;;;;18.76;38.91;97738.88;2078508;28;20225;-66
2022/02/09 08:46:33;;;;;;;6.90;1.67;;;;;;;18.41;39.69;97739.16;2080025;28;20207;-66
2022/02/09 08:47:35;;;;;;;2.92;1.63;;;;;;;18.12;40.09;97737.09;2079130;28;20197;-66
2022/02/09 08:48:38;;;;;;;3.88;1.60;;;;;;;16.54;43.20;97735.22;2079348;28;20205;-66
2022/02/09 08:49:40;;;;;;;7.15;2.90;;;;;;;19.82;36.85;97737.75;2079981;28;20689;-66
2022/02/09 08:50:41;;;;;;;12.77;2.33;;;;;;;19.31;37.47;97730.69;2079168;28;20754;-66
2022/02/09 08:51:43;;;;;;;7.60;2.00;;;;;;;17.47;40.35;97731.63;2079851;28;20193;-66
2022/02/09 08:52:45;;;;;;;5.95;2.45;;;;;;;18.13;40.27;97733.47;2079823;28;20237;-66
2022/02/09 08:53:46;;;;;;;6.70;2.95;;;;;;;17.46;40.16;97734.38;2078647;28;20193;-66
2022/02/09 08:54:50;;;;;;;5.95;2.55;;;;;;;17.73;40.57;97731.34;2079557;28;20200;-66
2022/02/09 08:55:51;;;;;;;4.93;2.28;;;;;;;18.51;38.90;97734.78;2079549;28;20216;-66
2022/02/09 08:56:55;;;;;;;6.13;2.28;;;;;;;17.03;41.50;97732.44;2080089;28;20204;-66
2022/02/09 08:57:56;;;;;;;5.70;2.45;;;;;;;17.02;42.35;97734.25;2079804;28;20196;-66
2022/02/09 08:58:59;;;;;;;6.60;2.50;;;;;;;17.81;40.83;97739.53;2082692;28;20213;-66
2022/02/09 09:00:10;;;;;;;4.50;1.80;;;;;;;17.65;40.68;97737.25;2082480;28;20193;-66
2022/02/09 09:01:23;;;;;;;7.07;2.50;;;;;;;16.46;42.37;97734.91;2079208;28;20212;-66
2022/02/09 09:02:32;;;;;;;5.57;1.90;;;;;;;17.81;40.15;97736.88;2079377;28;20201;-66
2022/02/09 09:03:45;;;;;;;8.82;2.00;;;;;;;18.70;37.90;97724.31;2079747;28;20208;-66
2022/02/09 09:04:52;;;;;;;5.32;2.15;;;;;;;16.73;41.39;97734.63;2078821;28;20196;-66
2022/02/09 09:05:58;;;;;;;6.05;2.47;;;;;;;15.73;43.97;97738.50;2078392;28;20221;-65
2022/02/09 09:07:12;;;;;;;3.92;2.15;;;;;;;16.26;43.94;97738.22;2079925;28;20197;-66
2022/02/09 09:10:46;;;;;;;8.07;3.05;;;;;;;17.24;41.09;97732.59;2079490;28;20216;-66
2022/02/09 09:14:45;;;;;;;7.45;2.97;;;;;;;16.35;42.17;97727.81;2079461;28;20192;-66
2022/02/09 09:17:53;;;;;;;5.88;2.35;;;;;;;16.86;41.71;97721.38;2070625;28;20209;-66
2022/02/09 09:40:40;;;;;;;8.15;2.55;;;;;;;17.63;39.44;97720.66;2078695;28;20208;-65
2022/02/09 10:00:05;;;;;;;11.38;2.38;;;;;;;18.69;37.40;97709.34;2079157;28;20636;-66
2022/02/09 10:02:18;;;;;;;7.28;2.05;;;;;;;19.66;35.15;97710.81;2079769;28;20216;-66
2022/02/09 10:03:51;;;;;;;7.95;2.45;;;;;;;18.15;38.44;97712.97;2078943;28;20614;-65
2022/02/09 10:14:13;;;;;;;5.20;2.30;;;;;;;19.95;35.37;97717.09;2081125;28;20331;-66
2022/02/09 10:33:36;;;;;;;8.38;2.25;;;;;;;21.36;33.35;97694.38;2080761;28;20197;-63
2022/02/09 10:34:39;;;;;;;4.88;2.55;;;;;;;19.43;34.89;97699.56;2080286;28;20197;-63
2022/02/09 10:35:59;;;;;;;7.22;2.70;;;;;;;20.14;36.29;97692.31;2079848;28;20243;-63
2022/02/09 10:37:06;;;;;;;8.48;2.10;;;;;;;20.55;33.88;97686.88;2080320;28;20197;-64
2022/02/09 10:38:26;;;;;;;5.82;2.03;;;;;;;21.37;34.35;97684.56;2079674;28;20217;-64
2022/02/09 10:41:29;;;;;;;6.72;2.05;;;;;;;22.51;32.89;97675.13;2080044;28;20220;-64
2022/02/09 10:42:41;;;;;;;3.15;1.70;;;;;;;20.91;33.99;97679.97;2080706;28;20197;-64
2022/02/09 10:43:45;;;;;;;3.45;1.80;;;;;;;21.21;32.82;97672.72;2080851;28;20196;-63
2022/02/09 10:44:54;;;;;;;7.32;2.35;;;;;;;20.88;33.90;97684.75;2080225;28;20205;-64
2022/02/09 10:46:11;;;;;;;4.57;2.20;;;;;;;20.72;33.88;97683.50;2080053;28;20213;-64
2022/02/09 10:47:25;;;;;;;7.82;2.38;;;;;;;20.56;34.28;97675.22;2080891;28;20813;-64
2022/02/09 10:48:39;;;;;;;11.50;2.25;;;;;;;20.13;34.67;97656.09;2080153;28;20591;-63
2022/02/09 10:49:41;;;;;;;3.65;1.60;;;;;;;20.51;34.64;97666.84;2079117;28;20647;-64
2022/02/09 10:50:43;;;;;;;4.35;1.88;;;;;;;20.65;34.60;97658.44;2080187;28;20217;-64
2022/02/09 10:53:02;;;;;;;6.28;2.22;;;;;;;22.27;31.87;97665.09;2080320;28;20208;-65
2022/02/09 10:54:14;;;;;;;6.00;2.40;;;;;;;21.07;33.51;97663.38;2079926;28;20197;-64
2022/02/09 10:55:36;;;;;;;6.80;1.98;;;;;;;19.48;35.72;97666.31;2080280;28;20204;-64
2022/02/09 10:56:40;;;;;;;7.80;2.30;;;;;;;20.29;35.23;97657.34;2080444;28;20208;-64
2022/02/09 10:57:44;;;;;;;4.60;1.80;;;;;;;20.87;34.25;97664.41;2079801;28;20667;-64
2022/02/09 10:58:45;;;;;;;3.85;1.50;;;;;;;21.00;33.89;97650.78;2080681;28;20209;-64
2022/02/09 10:59:49;;;;;;;4.15;1.98;;;;;;;21.18;33.73;97649.03;2080772;28;20843;-64